ABD815 LKMT-EFHK
Flight info
| Callsign | ABD815 |
|---|---|
| Flight time | N/A |
| Altitude | 39000 |
| Route | BAVOK T709 KOTEK DCT BOKSU DCT GUNTA DCT KEMET Q11 INTOR |
| Aircraft | B737/M-SDE2E3FGHIRWXY/L |
Departure
| Time | N/A |
|---|---|
| Airport | Leoš Janáček Airport Ostrava (LKMT) |
Arrival
| Time | 2026-05-03 20:35 |
|---|---|
| Airport | Helsinki Vantaa Airport (EFHK) |
| Time | Latitude | Longitude | Altitude | Speed | Heading |
|---|---|---|---|---|---|
| 2026-05-03 20:15 | 59.40471 | 24.97965 | 20073 ft | 380 kts | 6° |
| 2026-05-03 20:15 | 59.43008 | 24.99200 | 19512 ft | 370 kts | 6° |
| 2026-05-03 20:15 | 59.45483 | 25.00405 | 18976 ft | 364 kts | 6° |
| 2026-05-03 20:15 | 59.47936 | 25.01594 | 18455 ft | 360 kts | 6° |
| 2026-05-03 20:16 | 59.50358 | 25.02769 | 17908 ft | 357 kts | 6° |
| 2026-05-03 20:16 | 59.52761 | 25.03935 | 17356 ft | 354 kts | 6° |
| 2026-05-03 20:16 | 59.55148 | 25.05097 | 16775 ft | 351 kts | 6° |
| 2026-05-03 20:16 | 59.57513 | 25.06250 | 16205 ft | 349 kts | 7° |
| 2026-05-03 20:17 | 59.59866 | 25.07399 | 15644 ft | 347 kts | 7° |
| 2026-05-03 20:17 | 59.62172 | 25.08527 | 15119 ft | 344 kts | 7° |
| 2026-05-03 20:17 | 59.64487 | 25.09663 | 14659 ft | 340 kts | 7° |
| 2026-05-03 20:17 | 59.66781 | 25.10790 | 14295 ft | 340 kts | 8° |
| 2026-05-03 20:18 | 59.69086 | 25.11920 | 13944 ft | 343 kts | 8° |
| 2026-05-03 20:18 | 59.71404 | 25.13059 | 13583 ft | 343 kts | 8° |
| 2026-05-03 20:18 | 59.73695 | 25.14193 | 13175 ft | 336 kts | 8° |
| 2026-05-03 20:18 | 59.75943 | 25.15307 | 12773 ft | 330 kts | 8° |
| 2026-05-03 20:19 | 59.78150 | 25.16399 | 12380 ft | 324 kts | 8° |
| 2026-05-03 20:19 | 59.80321 | 25.17475 | 12002 ft | 319 kts | 8° |
| 2026-05-03 20:19 | 59.82438 | 25.18529 | 11873 ft | 310 kts | 9° |
| 2026-05-03 20:19 | 59.84486 | 25.19914 | 11852 ft | 311 kts | 18° |
| 2026-05-03 20:20 | 59.86470 | 25.21659 | 11860 ft | 313 kts | 19° |
| 2026-05-03 20:20 | 59.88465 | 25.23433 | 11856 ft | 314 kts | 19° |
| 2026-05-03 20:20 | 59.90464 | 25.25179 | 11851 ft | 313 kts | 18° |
| 2026-05-03 20:20 | 59.92469 | 25.26911 | 11720 ft | 316 kts | 18° |
| 2026-05-03 20:21 | 59.94471 | 25.28623 | 11466 ft | 317 kts | 18° |
| 2026-05-03 20:21 | 59.96478 | 25.30335 | 11202 ft | 310 kts | 17° |
| 2026-05-03 20:21 | 59.98523 | 25.31185 | 10903 ft | 295 kts | 354° |
| 2026-05-03 20:21 | 60.00509 | 25.30589 | 10626 ft | 285 kts | 341° |
| 2026-05-03 20:22 | 60.02427 | 25.29601 | 10340 ft | 284 kts | 340° |
| 2026-05-03 20:22 | 60.04337 | 25.28584 | 10052 ft | 284 kts | 340° |
| 2026-05-03 20:22 | 60.06247 | 25.27589 | 9752 ft | 284 kts | 341° |
| 2026-05-03 20:22 | 60.08168 | 25.26605 | 9379 ft | 286 kts | 341° |
| 2026-05-03 20:23 | 60.10099 | 25.25625 | 9003 ft | 287 kts | 341° |
| 2026-05-03 20:23 | 60.12036 | 25.24645 | 8657 ft | 286 kts | 341° |
| 2026-05-03 20:23 | 60.13913 | 25.23700 | 8277 ft | 276 kts | 341° |
| 2026-05-03 20:23 | 60.15749 | 25.22776 | 7899 ft | 267 kts | 341° |
| 2026-05-03 20:24 | 60.17523 | 25.21880 | 7539 ft | 259 kts | 341° |
| 2026-05-03 20:24 | 60.19248 | 25.21006 | 7182 ft | 253 kts | 342° |
| 2026-05-03 20:24 | 60.20944 | 25.20144 | 6835 ft | 250 kts | 342° |
| 2026-05-03 20:24 | 60.22623 | 25.19289 | 6495 ft | 249 kts | 342° |
| 2026-05-03 20:25 | 60.24288 | 25.18441 | 6249 ft | 244 kts | 342° |
| 2026-05-03 20:25 | 60.25928 | 25.17605 | 6001 ft | 244 kts | 342° |
| 2026-05-03 20:25 | 60.27576 | 25.16762 | 5745 ft | 246 kts | 342° |
| 2026-05-03 20:25 | 60.29240 | 25.15913 | 5486 ft | 248 kts | 342° |
| 2026-05-03 20:26 | 60.30923 | 25.15052 | 5243 ft | 250 kts | 343° |
| 2026-05-03 20:26 | 60.32611 | 25.14190 | 5049 ft | 245 kts | 343° |
| 2026-05-03 20:26 | 60.34229 | 25.13365 | 4905 ft | 237 kts | 343° |
| 2026-05-03 20:26 | 60.35810 | 25.12494 | 4639 ft | 233 kts | 336° |
| 2026-05-03 20:27 | 60.37263 | 25.11099 | 4382 ft | 229 kts | 330° |
| 2026-05-03 20:27 | 60.38653 | 25.09610 | 4125 ft | 229 kts | 330° |
| 2026-05-03 20:27 | 60.40052 | 25.08132 | 3902 ft | 224 kts | 330° |
| 2026-05-03 20:27 | 60.41438 | 25.06687 | 3644 ft | 226 kts | 331° |
| 2026-05-03 20:28 | 60.42847 | 25.05229 | 3395 ft | 229 kts | 331° |
| 2026-05-03 20:28 | 60.44256 | 25.03774 | 3139 ft | 222 kts | 332° |
| 2026-05-03 20:28 | 60.45603 | 25.02387 | 2890 ft | 212 kts | 331° |
| 2026-05-03 20:28 | 60.46893 | 25.01059 | 2613 ft | 205 kts | 331° |
| 2026-05-03 20:29 | 60.48153 | 24.99761 | 2359 ft | 201 kts | 332° |
| 2026-05-03 20:29 | 60.49390 | 24.98481 | 2120 ft | 195 kts | 330° |
| 2026-05-03 20:29 | 60.50322 | 24.96685 | 2017 ft | 181 kts | 300° |
| 2026-05-03 20:29 | 60.50753 | 24.94316 | 2001 ft | 179 kts | 278° |
| 2026-05-03 20:30 | 60.50646 | 24.91814 | 2015 ft | 181 kts | 253° |
| 2026-05-03 20:30 | 60.50041 | 24.89568 | 2006 ft | 184 kts | 232° |
| 2026-05-03 20:30 | 60.49058 | 24.87911 | 2009 ft | 184 kts | 216° |
| 2026-05-03 20:30 | 60.47990 | 24.86495 | 2011 ft | 182 kts | 214° |
| 2026-05-03 20:31 | 60.46938 | 24.85127 | 1995 ft | 181 kts | 214° |
| 2026-05-03 20:31 | 60.45809 | 24.84018 | 1980 ft | 182 kts | 187° |
| 2026-05-03 20:31 | 60.44581 | 24.84640 | 2018 ft | 186 kts | 154° |
| 2026-05-03 20:31 | 60.43463 | 24.85769 | 1988 ft | 174 kts | 154° |
| 2026-05-03 20:32 | 60.42406 | 24.86843 | 1980 ft | 168 kts | 154° |
| 2026-05-03 20:32 | 60.41359 | 24.87914 | 1998 ft | 170 kts | 154° |
| 2026-05-03 20:32 | 60.40288 | 24.89012 | 1805 ft | 173 kts | 154° |
| 2026-05-03 20:32 | 60.39218 | 24.90108 | 1578 ft | 169 kts | 153° |
| 2026-05-03 20:33 | 60.38204 | 24.91147 | 1341 ft | 158 kts | 153° |
| 2026-05-03 20:33 | 60.37256 | 24.92118 | 1119 ft | 149 kts | 153° |
| 2026-05-03 20:33 | 60.36337 | 24.93059 | 993 ft | 143 kts | 153° |
| 2026-05-03 20:33 | 60.35475 | 24.93943 | 746 ft | 138 kts | 152° |
| 2026-05-03 20:34 | 60.34637 | 24.94801 | 573 ft | 134 kts | 153° |
| 2026-05-03 20:34 | 60.33801 | 24.95659 | 411 ft | 136 kts | 153° |
| 2026-05-03 20:34 | 60.32960 | 24.96520 | 223 ft | 134 kts | 153° |
| 2026-05-03 20:34 | 60.32176 | 24.97325 | 154 ft | 114 kts | 153° |
| 2026-05-03 20:35 | 60.31696 | 24.97816 | 151 ft | 49 kts | 153° |
| 2026-05-03 20:35 | 60.31521 | 24.97984 | 152 ft | 20 kts | 167° |
| 2026-05-03 20:35 | 60.31422 | 24.97903 | 154 ft | 15 kts | 238° |
| 2026-05-03 20:35 | 60.31428 | 24.97758 | 155 ft | 10 kts | 322° |
| 2026-05-03 20:36 | 60.31487 | 24.97695 | 155 ft | 10 kts | 334° |
| 2026-05-03 20:36 | 60.31545 | 24.97635 | 155 ft | 9 kts | 332° |
| 2026-05-03 20:36 | 60.31605 | 24.97572 | 156 ft | 10 kts | 332° |
| 2026-05-03 20:36 | 60.31663 | 24.97510 | 158 ft | 9 kts | 332° |
| 2026-05-03 20:37 | 60.31722 | 24.97450 | 158 ft | 10 kts | 333° |
| 2026-05-03 20:37 | 60.31780 | 24.97390 | 159 ft | 9 kts | 333° |
| 2026-05-03 20:37 | 60.31840 | 24.97327 | 161 ft | 10 kts | 333° |
| 2026-05-03 20:37 | 60.31907 | 24.97259 | 161 ft | 11 kts | 333° |
| 2026-05-03 20:38 | 60.31977 | 24.97188 | 164 ft | 11 kts | 333° |
| 2026-05-03 20:38 | 60.32050 | 24.97112 | 164 ft | 12 kts | 333° |
| 2026-05-03 20:38 | 60.32128 | 24.97032 | 165 ft | 12 kts | 333° |
| 2026-05-03 20:38 | 60.32204 | 24.96954 | 164 ft | 12 kts | 333° |
| 2026-05-03 20:39 | 60.32275 | 24.96881 | 164 ft | 11 kts | 329° |
| 2026-05-03 20:39 | 60.32292 | 24.96757 | 165 ft | 10 kts | 234° |
| 2026-05-03 20:39 | 60.32243 | 24.96650 | 167 ft | 11 kts | 227° |
| 2026-05-03 20:39 | 60.32190 | 24.96533 | 167 ft | 12 kts | 227° |
| 2026-05-03 20:40 | 60.32134 | 24.96410 | 167 ft | 12 kts | 227° |
| 2026-05-03 20:40 | 60.32079 | 24.96288 | 167 ft | 12 kts | 226° |
| 2026-05-03 20:40 | 60.32023 | 24.96167 | 167 ft | 12 kts | 227° |
| 2026-05-03 20:40 | 60.31968 | 24.96046 | 168 ft | 12 kts | 227° |
| 2026-05-03 20:41 | 60.31914 | 24.95928 | 169 ft | 11 kts | 227° |
| 2026-05-03 20:41 | 60.31862 | 24.95812 | 168 ft | 11 kts | 227° |
| 2026-05-03 20:41 | 60.31811 | 24.95699 | 169 ft | 11 kts | 227° |
| 2026-05-03 20:41 | 60.31761 | 24.95590 | 169 ft | 10 kts | 227° |
| 2026-05-03 20:42 | 60.31714 | 24.95486 | 170 ft | 10 kts | 227° |
| 2026-05-03 20:42 | 60.31662 | 24.95372 | 169 ft | 12 kts | 227° |
| 2026-05-03 20:42 | 60.31602 | 24.95238 | 169 ft | 13 kts | 227° |
| 2026-05-03 20:42 | 60.31541 | 24.95105 | 169 ft | 13 kts | 227° |
| 2026-05-03 20:43 | 60.31481 | 24.94974 | 167 ft | 13 kts | 227° |
| 2026-05-03 20:43 | 60.31421 | 24.94843 | 165 ft | 13 kts | 227° |
| 2026-05-03 20:43 | 60.31362 | 24.94712 | 161 ft | 12 kts | 225° |
| 2026-05-03 20:43 | 60.31293 | 24.94696 | 160 ft | 10 kts | 150° |
| 2026-05-03 20:44 | 60.31242 | 24.94787 | 162 ft | 10 kts | 137° |
| 2026-05-03 20:44 | 60.31192 | 24.94880 | 163 ft | 10 kts | 137° |
| 2026-05-03 20:44 | 60.31142 | 24.94966 | 165 ft | 9 kts | 145° |
| 2026-05-03 20:44 | 60.31088 | 24.95033 | 168 ft | 9 kts | 142° |
| 2026-05-03 20:45 | 60.31042 | 24.95117 | 168 ft | 9 kts | 137° |
| 2026-05-03 20:45 | 60.30996 | 24.95195 | 166 ft | 9 kts | 152° |
| 2026-05-03 20:45 | 60.30942 | 24.95155 | 164 ft | 10 kts | 227° |
| 2026-05-03 20:45 | 60.30901 | 24.95065 | 164 ft | 8 kts | 227° |
| 2026-05-03 20:46 | 60.30863 | 24.94981 | 164 ft | 8 kts | 227° |
| 2026-05-03 20:46 | 60.30827 | 24.94901 | 164 ft | 7 kts | 227° |
| 2026-05-03 20:46 | 60.30791 | 24.94871 | 164 ft | 6 kts | 169° |
| 2026-05-03 20:46 | 60.30763 | 24.94912 | 163 ft | 4 kts | 135° |
| 2026-05-03 20:47 | 60.30745 | 24.94946 | 163 ft | 3 kts | 138° |
| 2026-05-03 20:47 | 60.30733 | 24.94968 | 163 ft | 1 kts | 138° |
| 2026-05-03 20:47 | 60.30730 | 24.94974 | 163 ft | 0 kts | 138° |